Time;durP1;ratioP1;P1;durP2;ratioP2;P2;SDS_P1;SDS_P2;PMS_P1;PMS_P2;Temp;Humidity;BMP_temperature;BMP_pressure;BME280_temperature;BME280_humidity;BME280_pressure;Samples;Min_cycle;Max_cycle;Signal;HPM_P1;HPM_P2
2022/11/17 00:02:05;;;;;;;7.60;6.07;;;;;;;;;;5032432;28;20052;-86
2022/11/17 00:04:31;;;;;;;6.32;5.32;;;;;;;;;;5031415;28;20046;-89
2022/11/17 00:07:00;;;;;;;5.13;4.63;;;;;;;;;;5049494;28;20115;-89
2022/11/17 00:09:26;;;;;;;4.50;4.10;;;;;;;;;;5054133;28;20045;-86
2022/11/17 00:14:39;;;;;;;6.15;5.50;;;;;;;;;;5055128;28;20055;-87
2022/11/17 00:17:07;;;;;;;7.30;5.70;;;;;;;;;;5055449;28;20169;-87
2022/11/17 00:22:19;;;;;;;7.88;4.22;;;;;;;;;;5035888;28;20092;-86
2022/11/17 00:24:47;;;;;;;6.85;6.15;;;;;;;;;;5054791;28;20045;-86
2022/11/17 00:27:14;;;;;;;5.82;3.45;;;;;;;;;;5054725;28;20049;-86
2022/11/17 00:29:40;;;;;;;4.45;3.67;;;;;;;;;;5054400;28;20103;-87
2022/11/17 00:34:55;;;;;;;6.55;4.47;;;;;;;;;;5054626;28;20091;-86
2022/11/17 00:37:23;;;;;;;4.55;4.15;;;;;;;;;;5055230;28;20550;-87
2022/11/17 00:39:49;;;;;;;5.75;4.45;;;;;;;;;;5052403;28;20049;-87
2022/11/17 00:42:16;;;;;;;6.35;5.75;;;;;;;;;;5034840;28;20049;-86
2022/11/17 00:44:42;;;;;;;4.55;4.07;;;;;;;;;;5035179;28;20042;-86
2022/11/17 00:47:09;;;;;;;6.30;4.95;;;;;;;;;;5035105;28;20495;-86
2022/11/17 00:49:35;;;;;;;5.85;4.35;;;;;;;;;;5034517;28;20045;-86
2022/11/17 00:52:02;;;;;;;4.22;2.90;;;;;;;;;;5054699;28;20048;-85
2022/11/17 00:54:30;;;;;;;6.07;5.57;;;;;;;;;;5054668;28;20107;-87
2022/11/17 00:56:56;;;;;;;8.50;7.68;;;;;;;;;;5053890;28;20390;-86
2022/11/17 00:59:23;;;;;;;10.23;4.45;;;;;;;;;;5054394;28;20064;-86
2022/11/17 01:01:49;;;;;;;9.82;5.10;;;;;;;;;;5036846;28;20053;-86
2022/11/17 01:04:16;;;;;;;6.13;3.83;;;;;;;;;;5036579;28;20049;-86
2022/11/17 01:06:43;;;;;;;4.32;3.92;;;;;;;;;;5057940;28;20106;-87
2022/11/17 01:09:11;;;;;;;6.30;5.70;;;;;;;;;;5055372;28;20053;-87
2022/11/17 01:11:39;;;;;;;5.68;5.07;;;;;;;;;;5054909;28;20049;-87
2022/11/17 01:14:06;;;;;;;5.05;4.38;;;;;;;;;;5065493;28;20045;-88
2022/11/17 01:16:33;;;;;;;4.25;3.67;;;;;;;;;;5039720;28;20061;-87
2022/11/17 01:19:00;;;;;;;5.95;4.45;;;;;;;;;;5034537;28;20049;-87
2022/11/17 01:21:27;;;;;;;5.00;4.60;;;;;;;;;;5034470;28;20494;-87
2022/11/17 01:23:54;;;;;;;3.60;3.25;;;;;;;;;;5034051;28;20495;-88
2022/11/17 01:26:22;;;;;;;4.70;4.28;;;;;;;;;;5034420;28;20049;-88
2022/11/17 01:28:50;;;;;;;4.65;3.33;;;;;;;;;;5037759;28;20048;-87
2022/11/17 01:31:18;;;;;;;4.20;3.95;;;;;;;;;;5042219;28;20050;-87
2022/11/17 01:33:45;;;;;;;4.40;4.10;;;;;;;;;;5034448;28;20057;-87
2022/11/17 01:36:12;;;;;;;6.80;3.58;;;;;;;;;;5034171;28;20053;-87
2022/11/17 01:38:39;;;;;;;5.72;5.22;;;;;;;;;;5034107;28;20053;-87
2022/11/17 01:41:06;;;;;;;4.15;3.35;;;;;;;;;;5043713;28;20049;-87
2022/11/17 01:43:43;;;;;;;7.15;6.65;;;;;;;;;;5053674;28;20465;-87
2022/11/17 01:46:26;;;;;;;5.93;4.40;;;;;;;;;;5043479;28;20053;-88
2022/11/17 01:48:54;;;;;;;11.57;3.40;;;;;;;;;;5033718;28;20101;-88
2022/11/17 01:51:21;;;;;;;6.05;4.80;;;;;;;;;;5033487;28;20049;-87
2022/11/17 01:53:49;;;;;;;5.22;4.80;;;;;;;;;;5033449;28;20049;-88
2022/11/17 01:56:17;;;;;;;4.78;3.78;;;;;;;;;;5044186;28;20059;-88
2022/11/17 01:58:46;;;;;;;6.55;4.10;;;;;;;;;;5054057;28;20053;-88
2022/11/17 02:01:13;;;;;;;3.90;3.60;;;;;;;;;;5050649;28;20050;-88
2022/11/17 02:03:41;;;;;;;3.85;3.55;;;;;;;;;;5053577;28;20053;-87
2022/11/17 02:06:10;;;;;;;3.95;3.65;;;;;;;;;;5045689;28;20056;-87
2022/11/17 02:08:38;;;;;;;4.47;3.78;;;;;;;;;;5033148;28;20565;-87
2022/11/17 02:11:08;;;;;;;9.60;5.25;;;;;;;;;;5033807;28;20057;-88
2022/11/17 02:13:35;;;;;;;4.68;3.55;;;;;;;;;;5033490;28;20053;-87
2022/11/17 02:16:01;;;;;;;5.57;4.30;;;;;;;;;;5033020;28;20057;-87
2022/11/17 02:18:28;;;;;;;4.45;4.05;;;;;;;;;;5033873;28;20041;-87
2022/11/17 02:21:05;;;;;;;4.50;4.15;;;;;;;;;;5042830;28;20053;-87
2022/11/17 02:23:50;;;;;;;5.35;4.07;;;;;;;;;;5032963;28;20053;-86
2022/11/17 02:26:21;;;;;;;3.20;2.97;;;;;;;;;;5033507;28;20119;-86
2022/11/17 02:28:53;;;;;;;3.30;2.88;;;;;;;;;;5032851;28;20045;-87
2022/11/17 02:31:23;;;;;;;5.80;3.65;;;;;;;;;;5032714;28;20045;-87
2022/11/17 02:33:53;;;;;;;3.60;3.40;;;;;;;;;;5032318;28;20111;-87
2022/11/17 02:36:21;;;;;;;5.10;3.38;;;;;;;;;;5039913;28;20041;-87
2022/11/17 02:38:53;;;;;;;6.60;6.07;;;;;;;;;;5032375;28;20399;-87
2022/11/17 02:41:24;;;;;;;5.38;4.95;;;;;;;;;;5032612;28;20128;-87
2022/11/17 02:44:02;;;;;;;5.35;3.90;;;;;;;;;;5032634;28;20054;-87
2022/11/17 02:46:30;;;;;;;4.82;4.43;;;;;;;;;;5032037;28;20050;-88
2022/11/17 02:48:59;;;;;;;4.03;3.67;;;;;;;;;;5032271;28;20458;-87
2022/11/17 02:51:26;;;;;;;6.57;3.38;;;;;;;;;;5040084;28;20067;-87
2022/11/17 02:53:53;;;;;;;4.88;4.47;;;;;;;;;;5054050;28;20049;-88
2022/11/17 02:56:20;;;;;;;4.45;3.65;;;;;;;;;;5056779;28;20128;-88
2022/11/17 02:58:49;;;;;;;5.75;3.72;;;;;;;;;;5052344;28;20061;-87
2022/11/17 03:01:27;;;;;;;4.57;3.97;;;;;;;;;;5052050;28;20091;-87
2022/11/17 03:04:03;;;;;;;4.75;4.18;;;;;;;;;;5052043;28;20063;-86
2022/11/17 03:06:35;;;;;;;6.03;5.45;;;;;;;;;;5051723;28;20049;-86
2022/11/17 03:09:09;;;;;;;3.53;3.25;;;;;;;;;;5051874;28;20136;-86
2022/11/17 03:11:39;;;;;;;3.65;2.75;;;;;;;;;;5043186;28;20099;-86
2022/11/17 03:14:07;;;;;;;5.50;3.25;;;;;;;;;;5032307;28;20084;-86
2022/11/17 03:16:37;;;;;;;4.72;4.40;;;;;;;;;;5032205;28;20107;-86
2022/11/17 03:19:08;;;;;;;3.95;3.65;;;;;;;;;;5031570;28;20057;-86
2022/11/17 03:21:37;;;;;;;4.53;4.22;;;;;;;;;;5040127;28;20280;-86
2022/11/17 03:24:05;;;;;;;4.35;3.97;;;;;;;;;;5051576;28;20075;-87
2022/11/17 03:26:33;;;;;;;4.72;3.38;;;;;;;;;;5044215;28;20057;-86
2022/11/17 03:29:01;;;;;;;3.58;3.35;;;;;;;;;;5032003;28;20556;-87
2022/11/17 03:31:29;;;;;;;2.70;2.60;;;;;;;;;;5038447;28;20560;-86
2022/11/17 03:33:58;;;;;;;4.35;3.97;;;;;;;;;;5051877;28;20049;-86
2022/11/17 03:36:27;;;;;;;3.03;2.83;;;;;;;;;;5046434;28;20049;-87
2022/11/17 03:38:58;;;;;;;3.00;2.80;;;;;;;;;;5031905;28;20061;-87
2022/11/17 03:41:25;;;;;;;3.35;2.70;;;;;;;;;;5037180;28;20052;-87
2022/11/17 03:43:54;;;;;;;3.47;2.85;;;;;;;;;;5031695;28;20049;-88
2022/11/17 03:46:22;;;;;;;4.95;4.28;;;;;;;;;;5033441;28;20075;-88
2022/11/17 03:48:51;;;;;;;2.80;2.30;;;;;;;;;;5038906;28;20053;-88
2022/11/17 03:51:21;;;;;;;4.43;4.13;;;;;;;;;;5043288;28;20439;-87
2022/11/17 03:53:47;;;;;;;3.78;3.47;;;;;;;;;;5055285;28;20140;-88
2022/11/17 03:56:23;;;;;;;3.20;3.00;;;;;;;;;;5054947;28;20052;-87
2022/11/17 03:58:53;;;;;;;3.72;3.53;;;;;;;;;;5055010;28;20107;-88
2022/11/17 04:01:20;;;;;;;4.65;4.35;;;;;;;;;;5054320;28;20053;-88
2022/11/17 04:03:47;;;;;;;8.00;4.65;;;;;;;;;;5054933;28;20556;-88
2022/11/17 04:06:14;;;;;;;7.53;6.93;;;;;;;;;;5054818;28;21368;-87
2022/11/17 04:08:42;;;;;;;6.82;6.32;;;;;;;;;;5055262;28;20041;-87
2022/11/17 04:16:36;;;;;;;3.08;2.88;;;;;;;;;;5049717;28;20108;-87
2022/11/17 04:19:03;;;;;;;4.50;4.10;;;;;;;;;;5035128;28;20100;-87
2022/11/17 04:21:30;;;;;;;3.40;2.63;;;;;;;;;;5034888;28;20054;-87
2022/11/17 04:23:57;;;;;;;2.60;2.40;;;;;;;;;;5034698;28;20176;-87
2022/11/17 04:29:08;;;;;;;3.78;3.47;;;;;;;;;;5049453;28;20055;-87
2022/11/17 04:31:34;;;;;;;4.18;3.80;;;;;;;;;;5050341;28;20054;-86
2022/11/17 04:34:02;;;;;;;4.22;3.83;;;;;;;;;;5034721;28;20459;-87
2022/11/17 04:36:29;;;;;;;9.77;8.95;;;;;;;;;;5034534;28;20826;-88
2022/11/17 04:38:57;;;;;;;4.40;4.10;;;;;;;;;;5034190;28;20569;-86
2022/11/17 04:44:11;;;;;;;3.42;3.15;;;;;;;;;;5054806;28;20044;-88
2022/11/17 04:46:38;;;;;;;4.15;3.85;;;;;;;;;;5047597;28;20045;-86
2022/11/17 04:49:05;;;;;;;2.55;2.42;;;;;;;;;;5049206;28;20048;-88
2022/11/17 04:51:32;;;;;;;4.50;4.03;;;;;;;;;;5048367;28;20094;-88
2022/11/17 04:53:58;;;;;;;4.70;4.30;;;;;;;;;;5054838;28;20102;-89
2022/11/17 04:56:27;;;;;;;4.18;3.92;;;;;;;;;;5055200;28;20049;-88
2022/11/17 04:58:54;;;;;;;5.47;5.07;;;;;;;;;;5047635;28;20553;-88
2022/11/17 05:01:21;;;;;;;4.80;4.38;;;;;;;;;;5050934;28;20041;-87
2022/11/17 05:03:48;;;;;;;6.15;5.55;;;;;;;;;;5049369;28;20092;-87
2022/11/17 05:06:16;;;;;;;3.45;3.25;;;;;;;;;;5049327;28;20094;-88
2022/11/17 05:08:43;;;;;;;3.40;3.17;;;;;;;;;;5050044;28;20168;-87
2022/11/17 05:13:56;;;;;;;4.57;3.20;;;;;;;;;;5050486;28;20506;-88
2022/11/17 05:19:13;;;;;;;5.68;5.28;;;;;;;;;;5036190;28;20118;-88
2022/11/17 05:21:40;;;;;;;5.57;3.85;;;;;;;;;;5047987;28;20045;-87
2022/11/17 05:24:06;;;;;;;4.88;4.40;;;;;;;;;;5051986;28;20083;-87
2022/11/17 05:26:33;;;;;;;3.97;3.75;;;;;;;;;;5052482;28;20441;-86
2022/11/17 05:29:02;;;;;;;4.60;4.22;;;;;;;;;;5033375;28;20057;-86
2022/11/17 05:31:29;;;;;;;4.05;3.75;;;;;;;;;;5033463;28;20046;-86
2022/11/17 05:33:56;;;;;;;3.70;3.40;;;;;;;;;;5035130;28;20088;-86
2022/11/17 05:36:23;;;;;;;4.00;3.70;;;;;;;;;;5041546;28;20103;-86
2022/11/17 05:38:50;;;;;;;3.65;3.40;;;;;;;;;;5054903;28;20045;-86
2022/11/17 05:41:17;;;;;;;4.97;4.57;;;;;;;;;;5054836;28;20170;-86
2022/11/17 05:43:44;;;;;;;3.15;2.95;;;;;;;;;;5035363;28;20050;-86
2022/11/17 05:46:12;;;;;;;2.15;2.05;;;;;;;;;;5033145;28;20095;-85
2022/11/17 05:48:38;;;;;;;3.92;3.72;;;;;;;;;;5034151;28;20055;-85
2022/11/17 05:51:06;;;;;;;5.05;4.13;;;;;;;;;;5043634;28;20053;-86
2022/11/17 05:53:32;;;;;;;3.28;3.05;;;;;;;;;;5051847;28;20037;-87
2022/11/17 05:56:07;;;;;;;4.38;3.55;;;;;;;;;;5043356;28;20057;-86
2022/11/17 05:58:35;;;;;;;3.75;3.15;;;;;;;;;;5045261;28;20057;-86
2022/11/17 06:01:02;;;;;;;3.22;2.92;;;;;;;;;;5045358;28;20098;-86
2022/11/17 06:03:32;;;;;;;5.07;4.68;;;;;;;;;;5042050;28;20076;-87
2022/11/17 06:05:59;;;;;;;4.32;3.92;;;;;;;;;;5047272;28;20052;-87
2022/11/17 06:08:27;;;;;;;3.92;3.53;;;;;;;;;;5046602;28;20048;-87
2022/11/17 06:10:54;;;;;;;3.15;2.85;;;;;;;;;;5045611;28;20053;-86
2022/11/17 06:13:24;;;;;;;3.80;3.60;;;;;;;;;;5052206;28;20049;-87
2022/11/17 06:15:51;;;;;;;5.47;3.90;;;;;;;;;;5048718;28;20787;-87
2022/11/17 06:18:19;;;;;;;4.95;2.47;;;;;;;;;;5032070;28;20095;-87
2022/11/17 06:20:48;;;;;;;3.67;2.70;;;;;;;;;;5032155;28;20476;-87
2022/11/17 06:23:15;;;;;;;5.80;5.38;;;;;;;;;;5032260;28;20045;-87
2022/11/17 06:25:42;;;;;;;4.95;4.55;;;;;;;;;;5032302;28;20415;-88
2022/11/17 06:28:13;;;;;;;4.93;3.40;;;;;;;;;;5032394;28;20057;-88
2022/11/17 06:30:39;;;;;;;7.93;4.10;;;;;;;;;;5038746;28;20045;-89
2022/11/17 06:33:07;;;;;;;4.10;3.80;;;;;;;;;;5056408;28;20053;-88
2022/11/17 06:35:34;;;;;;;4.35;4.05;;;;;;;;;;5049494;28;20052;-88
2022/11/17 06:38:02;;;;;;;4.60;4.20;;;;;;;;;;5048901;28;20056;-88
2022/11/17 06:40:29;;;;;;;4.72;4.38;;;;;;;;;;5052522;28;20053;-87
2022/11/17 06:43:08;;;;;;;6.15;5.68;;;;;;;;;;5044568;28;20046;-87
2022/11/17 06:45:34;;;;;;;6.00;5.43;;;;;;;;;;5032147;28;20054;-87
2022/11/17 06:48:01;;;;;;;3.88;3.58;;;;;;;;;;5033791;28;20053;-88
2022/11/17 06:50:27;;;;;;;6.75;5.00;;;;;;;;;;5052291;28;20094;-87
2022/11/17 06:52:56;;;;;;;5.70;5.18;;;;;;;;;;5050925;28;20445;-88
2022/11/17 06:55:24;;;;;;;5.65;5.15;;;;;;;;;;5052432;28;20048;-87
2022/11/17 06:57:50;;;;;;;5.10;4.72;;;;;;;;;;5052304;28;20490;-87
2022/11/17 07:00:17;;;;;;;5.40;4.82;;;;;;;;;;5066337;28;20117;-87
2022/11/17 07:05:15;;;;;;;10.52;6.40;;;;;;;;;;4928192;29;20044;-87
2022/11/17 07:07:41;;;;;;;7.07;5.03;;;;;;;;;;4922420;29;20559;-86
2022/11/17 07:10:08;;;;;;;8.63;7.95;;;;;;;;;;4944780;28;20051;-87
2022/11/17 07:12:36;;;;;;;5.93;5.43;;;;;;;;;;4912780;29;20560;-87
2022/11/17 07:15:03;;;;;;;8.07;6.18;;;;;;;;;;4919602;28;20460;-87
2022/11/17 07:17:29;;;;;;;3.75;3.53;;;;;;;;;;4927687;29;20056;-86
2022/11/17 07:19:56;;;;;;;4.28;3.88;;;;;;;;;;4932401;28;20056;-86
2022/11/17 07:22:22;;;;;;;3.35;3.08;;;;;;;;;;4935777;29;20178;-86
2022/11/17 07:24:49;;;;;;;4.88;4.45;;;;;;;;;;4954425;28;20055;-87
2022/11/17 07:27:15;;;;;;;4.72;4.35;;;;;;;;;;4955160;28;20110;-86
2022/11/17 07:29:43;;;;;;;6.28;5.78;;;;;;;;;;4939388;28;20051;-86
2022/11/17 07:32:11;;;;;;;4.47;4.22;;;;;;;;;;4935418;28;20105;-86
2022/11/17 07:34:37;;;;;;;3.78;3.47;;;;;;;;;;4953546;28;20160;-86
2022/11/17 07:37:04;;;;;;;2.83;2.65;;;;;;;;;;4953892;28;20051;-86
2022/11/17 07:39:30;;;;;;;3.70;3.42;;;;;;;;;;4928099;28;20056;-87
2022/11/17 07:41:57;;;;;;;7.53;5.15;;;;;;;;;;4927335;29;20438;-85
2022/11/17 07:44:23;;;;;;;5.13;4.22;;;;;;;;;;4948165;29;20126;-86
2022/11/17 07:46:51;;;;;;;5.35;4.95;;;;;;;;;;4954287;28;20120;-86
2022/11/17 07:49:17;;;;;;;2.95;2.75;;;;;;;;;;4944946;28;20127;-86
2022/11/17 07:51:44;;;;;;;4.93;4.55;;;;;;;;;;4926919;29;20528;-86
2022/11/17 07:54:10;;;;;;;7.07;5.32;;;;;;;;;;4916276;29;20052;-86
2022/11/17 07:56:37;;;;;;;5.95;3.55;;;;;;;;;;4915637;29;20052;-86
2022/11/17 07:59:03;;;;;;;2.53;2.15;;;;;;;;;;4940622;29;20108;-86
2022/11/17 08:01:30;;;;;;;8.13;5.70;;;;;;;;;;4939880;28;20094;-87
2022/11/17 08:03:58;;;;;;;5.20;4.45;;;;;;;;;;4933005;29;20060;-86
2022/11/17 08:06:24;;;;;;;6.28;2.70;;;;;;;;;;4927109;29;20055;-86
2022/11/17 08:08:52;;;;;;;2.30;2.10;;;;;;;;;;4940495;29;20051;-86
2022/11/17 08:11:19;;;;;;;6.53;5.22;;;;;;;;;;4950115;28;20059;-86
2022/11/17 08:13:45;;;;;;;4.07;3.67;;;;;;;;;;4934923;28;20054;-86
2022/11/17 08:16:13;;;;;;;2.25;2.05;;;;;;;;;;4936085;28;20051;-87
2022/11/17 08:18:40;;;;;;;2.45;2.25;;;;;;;;;;4944063;28;20059;-86
2022/11/17 08:21:08;;;;;;;2.53;2.33;;;;;;;;;;4952862;28;20059;-87
2022/11/17 08:23:36;;;;;;;2.78;2.58;;;;;;;;;;4935663;28;20056;-87
2022/11/17 08:26:03;;;;;;;2.50;2.40;;;;;;;;;;4927685;29;20048;-86
2022/11/17 08:28:30;;;;;;;2.60;2.38;;;;;;;;;;4926843;29;20050;-86
2022/11/17 08:30:56;;;;;;;1.98;1.88;;;;;;;;;;4933600;28;20059;-86
2022/11/17 08:33:23;;;;;;;3.13;2.92;;;;;;;;;;4939082;28;20051;-86
2022/11/17 08:35:50;;;;;;;3.67;3.38;;;;;;;;;;4940778;28;20059;-85
2022/11/17 08:38:18;;;;;;;3.47;3.20;;;;;;;;;;4920768;29;20055;-87
2022/11/17 08:40:44;;;;;;;2.60;2.40;;;;;;;;;;4934345;29;20130;-86
2022/11/17 08:43:11;;;;;;;3.70;2.15;;;;;;;;;;4938460;28;20097;-87
2022/11/17 08:45:37;;;;;;;3.60;3.35;;;;;;;;;;4945699;28;20056;-86
2022/11/17 08:48:06;;;;;;;2.03;1.88;;;;;;;;;;4934726;29;20516;-87
2022/11/17 08:50:32;;;;;;;2.83;2.33;;;;;;;;;;4933902;29;20054;-87
2022/11/17 08:52:59;;;;;;;3.97;3.65;;;;;;;;;;4932138;29;20067;-87
2022/11/17 08:55:27;;;;;;;3.65;3.45;;;;;;;;;;4938721;29;20052;-87
2022/11/17 08:57:53;;;;;;;4.25;3.40;;;;;;;;;;4932218;29;20047;-87
2022/11/17 09:00:20;;;;;;;3.00;2.80;;;;;;;;;;4932978;28;20058;-87
2022/11/17 09:02:47;;;;;;;6.97;6.43;;;;;;;;;;4927642;28;20052;-87
2022/11/17 09:05:14;;;;;;;4.72;4.43;;;;;;;;;;4937238;28;20074;-87
2022/11/17 09:07:40;;;;;;;4.43;3.58;;;;;;;;;;4932826;29;20536;-87
2022/11/17 09:10:09;;;;;;;4.47;4.07;;;;;;;;;;4934078;28;20044;-87
2022/11/17 09:12:37;;;;;;;5.20;4.80;;;;;;;;;;4933106;28;20463;-87
2022/11/17 09:15:04;;;;;;;5.35;4.95;;;;;;;;;;4935854;29;20052;-86
2022/11/17 09:17:32;;;;;;;5.95;5.60;;;;;;;;;;4935000;29;20456;-87
2022/11/17 09:19:59;;;;;;;4.05;3.65;;;;;;;;;;4949594;28;20062;-86
2022/11/17 09:22:25;;;;;;;5.65;4.82;;;;;;;;;;4936833;29;20055;-87
2022/11/17 09:24:52;;;;;;;6.63;6.22;;;;;;;;;;4933907;29;20105;-87
2022/11/17 09:27:19;;;;;;;3.47;3.28;;;;;;;;;;4934595;29;20110;-86
2022/11/17 09:29:46;;;;;;;5.07;3.63;;;;;;;;;;4949728;29;20417;-88
2022/11/17 09:32:15;;;;;;;4.10;3.70;;;;;;;;;;4934757;29;20047;-88
2022/11/17 09:34:42;;;;;;;2.63;2.45;;;;;;;;;;4934334;29;20040;-85
2022/11/17 09:37:08;;;;;;;2.63;2.40;;;;;;;;;;4931248;29;20048;-84
2022/11/17 09:39:35;;;;;;;3.03;2.83;;;;;;;;;;4931676;29;20052;-85
2022/11/17 09:42:01;;;;;;;3.47;3.28;;;;;;;;;;4934762;28;20552;-85
2022/11/17 09:44:38;;;;;;;3.10;2.90;;;;;;;;;;4938103;29;20086;-86
2022/11/17 09:47:10;;;;;;;2.42;2.30;;;;;;;;;;4933399;29;20102;-85
2022/11/17 09:49:41;;;;;;;3.10;2.90;;;;;;;;;;4944016;29;20055;-87
2022/11/17 09:52:13;;;;;;;2.20;2.10;;;;;;;;;;4935650;29;20048;-87
2022/11/17 09:54:42;;;;;;;2.13;2.03;;;;;;;;;;4935340;29;20106;-87
2022/11/17 09:57:13;;;;;;;2.75;2.55;;;;;;;;;;4926774;28;20147;-87
2022/11/17 09:59:39;;;;;;;3.00;2.85;;;;;;;;;;4936145;28;20056;-86
2022/11/17 10:02:10;;;;;;;3.20;3.00;;;;;;;;;;4930977;29;20043;-87
2022/11/17 10:04:37;;;;;;;4.60;4.38;;;;;;;;;;4932173;29;20463;-87
2022/11/17 10:07:03;;;;;;;3.63;3.33;;;;;;;;;;4933662;29;20054;-86
2022/11/17 10:09:36;;;;;;;4.70;4.30;;;;;;;;;;4941544;29;20097;-86
2022/11/17 10:12:13;;;;;;;5.75;2.97;;;;;;;;;;4919077;29;20481;-88
2022/11/17 10:14:40;;;;;;;4.55;4.35;;;;;;;;;;4932682;29;20433;-87
2022/11/17 10:17:08;;;;;;;3.75;3.45;;;;;;;;;;4922932;28;20043;-86
2022/11/17 10:19:38;;;;;;;3.90;3.60;;;;;;;;;;4934379;28;20055;-87
2022/11/17 10:22:14;;;;;;;3.63;3.42;;;;;;;;;;4928383;28;20499;-87
2022/11/17 10:24:42;;;;;;;4.63;4.32;;;;;;;;;;4933771;29;20071;-86
2022/11/17 10:27:18;;;;;;;3.65;3.45;;;;;;;;;;4933016;29;20064;-86
2022/11/17 10:29:55;;;;;;;3.50;2.90;;;;;;;;;;4941856;29;20051;-87
2022/11/17 10:32:22;;;;;;;6.65;3.95;;;;;;;;;;4932215;29;20102;-86
2022/11/17 10:34:50;;;;;;;6.50;6.18;;;;;;;;;;4924026;29;20429;-87
2022/11/17 10:37:27;;;;;;;5.18;4.78;;;;;;;;;;4923519;29;20047;-87
2022/11/17 10:40:06;;;;;;;4.18;3.78;;;;;;;;;;4944656;29;20116;-86
2022/11/17 10:42:33;;;;;;;4.63;4.28;;;;;;;;;;4952543;28;20456;-87
2022/11/17 10:45:00;;;;;;;4.30;4.07;;;;;;;;;;4951432;28;20043;-86
2022/11/17 10:47:29;;;;;;;5.03;4.60;;;;;;;;;;4951164;29;20052;-86
2022/11/17 10:50:12;;;;;;;3.95;3.63;;;;;;;;;;4950606;28;20493;-86
2022/11/17 10:52:38;;;;;;;4.13;3.75;;;;;;;;;;4950942;28;20051;-86
2022/11/17 10:55:18;;;;;;;5.90;5.50;;;;;;;;;;4934868;28;20453;-86
2022/11/17 10:57:46;;;;;;;4.03;3.83;;;;;;;;;;4932085;29;20117;-86
2022/11/17 11:00:22;;;;;;;5.18;4.78;;;;;;;;;;4928852;29;20056;-86
2022/11/17 11:02:48;;;;;;;3.80;3.53;;;;;;;;;;4920093;29;20056;-86
2022/11/17 11:05:17;;;;;;;3.28;3.03;;;;;;;;;;4934279;29;20109;-86
2022/11/17 11:07:43;;;;;;;4.40;3.78;;;;;;;;;;4923471;29;20746;-86
2022/11/17 11:10:13;;;;;;;4.38;3.97;;;;;;;;;;4928689;29;20056;-85
2022/11/17 11:12:43;;;;;;;5.07;4.47;;;;;;;;;;4928129;29;20063;-87
2022/11/17 11:15:15;;;;;;;5.43;3.65;;;;;;;;;;4936481;28;20044;-87
2022/11/17 11:17:41;;;;;;;4.35;3.90;;;;;;;;;;4931950;28;20056;-87
2022/11/17 11:20:12;;;;;;;5.03;4.72;;;;;;;;;;4941609;29;20051;-87
2022/11/17 11:22:44;;;;;;;5.13;4.30;;;;;;;;;;4950041;29;20066;-87
2022/11/17 11:25:16;;;;;;;7.95;7.20;;;;;;;;;;4930544;29;20094;-85
2022/11/17 11:27:56;;;;;;;6.38;5.90;;;;;;;;;;4922820;29;20051;-85
2022/11/17 11:30:22;;;;;;;8.20;7.50;;;;;;;;;;4937476;29;20130;-86
2022/11/17 11:33:00;;;;;;;6.18;5.68;;;;;;;;;;4924589;29;20059;-87
2022/11/17 11:35:39;;;;;;;7.82;7.13;;;;;;;;;;4918005;29;20094;-85
2022/11/17 11:38:14;;;;;;;9.88;7.40;;;;;;;;;;4928673;28;20044;-86
2022/11/17 11:40:43;;;;;;;7.32;6.72;;;;;;;;;;4918980;29;20059;-86
2022/11/17 11:43:19;;;;;;;9.98;9.27;;;;;;;;;;4930269;29;20485;-87
2022/11/17 11:45:49;;;;;;;7.95;7.18;;;;;;;;;;4944964;28;20054;-86
2022/11/17 11:48:17;;;;;;;6.75;6.13;;;;;;;;;;4934160;28;20060;-86
2022/11/17 11:50:50;;;;;;;6.07;5.63;;;;;;;;;;4932341;29;20087;-86
2022/11/17 11:53:22;;;;;;;6.18;5.57;;;;;;;;;;4935556;28;20047;-86
2022/11/17 11:55:50;;;;;;;8.52;6.18;;;;;;;;;;4932104;29;20190;-86
2022/11/17 11:58:19;;;;;;;12.48;8.65;;;;;;;;;;4930887;29;20055;-86
2022/11/17 12:00:46;;;;;;;6.90;6.45;;;;;;;;;;4941404;29;20052;-86
2022/11/17 12:03:16;;;;;;;8.10;7.28;;;;;;;;;;4941102;29;20118;-86
2022/11/17 12:05:51;;;;;;;8.40;7.60;;;;;;;;;;4943562;29;20455;-86
2022/11/17 12:08:23;;;;;;;5.85;5.38;;;;;;;;;;4948666;28;20051;-86
2022/11/17 12:10:53;;;;;;;6.88;6.32;;;;;;;;;;4944086;29;20047;-87
2022/11/17 12:13:21;;;;;;;6.45;5.88;;;;;;;;;;4934142;29;20052;-86
2022/11/17 12:15:47;;;;;;;9.50;7.57;;;;;;;;;;4935458;29;20059;-86
2022/11/17 12:18:29;;;;;;;11.32;10.63;;;;;;;;;;4920932;29;20087;-87
2022/11/17 12:21:03;;;;;;;5.60;5.10;;;;;;;;;;4941906;29;20070;-87
2022/11/17 12:23:37;;;;;;;6.55;5.72;;;;;;;;;;4953853;28;20062;-88
2022/11/17 12:26:04;;;;;;;33.33;27.27;;;;;;;;;;4928523;28;20044;-88
2022/11/17 12:28:34;;;;;;;9.30;8.52;;;;;;;;;;4934064;28;20063;-89
2022/11/17 12:31:01;;;;;;;;;;;;;;;;;;4944907;28;20117;-88
2022/11/17 12:33:48;;;;;;;7.15;6.65;;;;;;;;;;4934560;28;20073;-88
2022/11/17 12:36:16;;;;;;;11.38;8.82;;;;;;;;;;4938670;29;20056;-88
2022/11/17 12:38:44;;;;;;;6.22;5.68;;;;;;;;;;4933937;29;20174;-87
2022/11/17 12:41:10;;;;;;;8.75;8.07;;;;;;;;;;4944404;29;20061;-88
2022/11/17 12:43:37;;;;;;;10.18;7.38;;;;;;;;;;4948459;28;20059;-88
2022/11/17 12:46:27;;;;;;;7.15;6.55;;;;;;;;;;4947429;29;20055;-88
2022/11/17 12:49:03;;;;;;;12.25;11.50;;;;;;;;;;4922610;29;20056;-87
2022/11/17 12:51:34;;;;;;;9.15;8.32;;;;;;;;;;4950266;28;20054;-88
2022/11/17 12:54:06;;;;;;;13.60;12.80;;;;;;;;;;4953651;28;20109;-87
2022/11/17 12:56:35;;;;;;;11.23;9.18;;;;;;;;;;4957461;28;20121;-87
2022/11/17 12:59:19;;;;;;;9.15;7.45;;;;;;;;;;4952930;28;20052;-87
2022/11/17 13:01:50;;;;;;;6.90;6.43;;;;;;;;;;4952397;29;20101;-87
2022/11/17 13:04:18;;;;;;;7.43;6.93;;;;;;;;;;4914032;29;20064;-87
2022/11/17 13:06:57;;;;;;;8.30;7.55;;;;;;;;;;4939634;28;20047;-87
2022/11/17 13:09:26;;;;;;;7.38;6.72;;;;;;;;;;4992255;28;20096;-88
2022/11/17 13:11:58;;;;;;;6.38;5.97;;;;;;;;;;5021754;28;20132;-87
2022/11/17 13:14:24;;;;;;;8.77;8.05;;;;;;;;;;5031274;28;20072;-87
2022/11/17 13:16:51;;;;;;;8.57;7.97;;;;;;;;;;4948653;28;20059;-88
2022/11/17 13:19:34;;;;;;;5.93;5.55;;;;;;;;;;4999417;28;20186;-88
2022/11/17 13:22:02;;;;;;;6.47;5.28;;;;;;;;;;4952665;28;20047;-87
2022/11/17 13:24:34;;;;;;;6.20;5.85;;;;;;;;;;5017445;28;20045;-87
2022/11/17 13:27:01;;;;;;;5.40;4.93;;;;;;;;;;4936247;28;20135;-87
2022/11/17 13:29:28;;;;;;;5.07;4.78;;;;;;;;;;4917294;29;20099;-86
2022/11/17 13:32:09;;;;;;;6.65;6.05;;;;;;;;;;4949092;29;20413;-86
2022/11/17 13:34:44;;;;;;;6.85;6.22;;;;;;;;;;4949413;28;20109;-86
2022/11/17 13:37:15;;;;;;;6.32;5.75;;;;;;;;;;4952327;29;20063;-85
2022/11/17 13:39:53;;;;;;;4.75;4.35;;;;;;;;;;4952732;28;20048;-85
2022/11/17 13:42:19;;;;;;;5.97;5.38;;;;;;;;;;4952304;28;20606;-86
2022/11/17 13:44:46;;;;;;;7.05;6.47;;;;;;;;;;4952388;28;20515;-86
2022/11/17 13:47:20;;;;;;;6.50;6.00;;;;;;;;;;4915949;29;20060;-85
2022/11/17 13:49:46;;;;;;;10.25;9.65;;;;;;;;;;4936097;28;20456;-85
2022/11/17 13:52:14;;;;;;;5.85;5.40;;;;;;;;;;4953208;29;20500;-85
2022/11/17 13:54:43;;;;;;;6.13;5.63;;;;;;;;;;4943767;28;20056;-86
2022/11/17 13:57:17;;;;;;;6.13;5.50;;;;;;;;;;4951786;29;20112;-86
2022/11/17 13:59:44;;;;;;;8.45;7.85;;;;;;;;;;4936996;28;20059;-85
2022/11/17 14:02:29;;;;;;;7.65;6.45;;;;;;;;;;4939727;29;20052;-85
2022/11/17 14:07:46;;;;;;;6.63;6.22;;;;;;;;;;4911540;28;20195;-86
2022/11/17 14:10:26;;;;;;;7.82;7.20;;;;;;;;;;4896134;28;20042;-86
2022/11/17 14:12:54;;;;;;;6.07;5.57;;;;;;;;;;4874022;29;20053;-85
2022/11/17 14:15:22;;;;;;;7.50;6.93;;;;;;;;;;4899691;28;20573;-84
2022/11/17 14:17:50;;;;;;;7.03;6.43;;;;;;;;;;4916422;28;20137;-85
2022/11/17 14:20:29;;;;;;;8.13;7.53;;;;;;;;;;4966700;28;20061;-86
2022/11/17 14:23:00;;;;;;;10.18;9.57;;;;;;;;;;4969391;28;20116;-86
2022/11/17 14:25:28;;;;;;;6.30;5.85;;;;;;;;;;4975797;28;20056;-86
2022/11/17 14:27:54;;;;;;;9.05;7.57;;;;;;;;;;4889056;29;20052;-86
2022/11/17 14:30:21;;;;;;;5.88;5.32;;;;;;;;;;4889428;29;20107;-86
2022/11/17 14:32:47;;;;;;;7.68;6.47;;;;;;;;;;4910498;29;20060;-85
2022/11/17 14:35:14;;;;;;;6.13;5.55;;;;;;;;;;4910435;29;20052;-86
2022/11/17 14:37:40;;;;;;;4.85;4.35;;;;;;;;;;4914993;29;20127;-85
2022/11/17 14:40:12;;;;;;;6.25;5.85;;;;;;;;;;4951227;29;20097;-85
2022/11/17 14:42:40;;;;;;;5.55;5.18;;;;;;;;;;4951335;28;20055;-86
2022/11/17 14:45:07;;;;;;;7.43;6.63;;;;;;;;;;4953580;28;20061;-85
2022/11/17 14:47:34;;;;;;;5.93;5.53;;;;;;;;;;4945762;28;20688;-86
2022/11/17 14:50:01;;;;;;;7.55;6.32;;;;;;;;;;4929838;28;20056;-85
2022/11/17 14:52:27;;;;;;;7.65;6.95;;;;;;;;;;4921111;29;20052;-85
2022/11/17 14:54:54;;;;;;;6.38;5.78;;;;;;;;;;4912852;29;20052;-85
2022/11/17 14:57:20;;;;;;;8.15;5.20;;;;;;;;;;4946173;29;20055;-85
2022/11/17 14:59:48;;;;;;;9.20;6.80;;;;;;;;;;4933870;28;20413;-84
2022/11/17 15:02:14;;;;;;;6.32;5.82;;;;;;;;;;4946903;29;20497;-85
2022/11/17 15:04:41;;;;;;;7.20;5.97;;;;;;;;;;4936302;29;20070;-85
2022/11/17 15:07:07;;;;;;;10.48;9.60;;;;;;;;;;4945930;29;20493;-85
2022/11/17 15:09:34;;;;;;;6.20;4.63;;;;;;;;;;4950977;28;20081;-85
2022/11/17 15:12:00;;;;;;;6.15;5.57;;;;;;;;;;4950656;28;20059;-86
2022/11/17 15:14:27;;;;;;;9.02;8.20;;;;;;;;;;4946206;28;20048;-85
2022/11/17 15:16:55;;;;;;;8.82;8.00;;;;;;;;;;4943417;29;20458;-85
2022/11/17 15:19:21;;;;;;;9.70;8.80;;;;;;;;;;4939190;29;20044;-85
2022/11/17 15:21:48;;;;;;;8.00;6.82;;;;;;;;;;4941533;29;20117;-85
2022/11/17 15:24:15;;;;;;;9.20;6.43;;;;;;;;;;4949813;28;20073;-85